sensor_id;sensor_type;location;lat;lon;timestamp;P1;durP1;ratioP1;P2;durP2;ratioP2
6392;SDS011;3229;42.674;23.282;2022-12-05T00:00:11;4.83;;;4.33;;
6392;SDS011;3229;42.674;23.282;2022-12-05T00:02:40;5.47;;;4.20;;
6392;SDS011;3229;42.674;23.282;2022-12-05T00:05:08;5.73;;;4.57;;
6392;SDS011;3229;42.674;23.282;2022-12-05T00:07:36;5.40;;;3.87;;
6392;SDS011;3229;42.674;23.282;2022-12-05T00:10:04;5.23;;;4.30;;
6392;SDS011;3229;42.674;23.282;2022-12-05T00:12:32;6.73;;;4.70;;
6392;SDS011;3229;42.674;23.282;2022-12-05T00:14:59;5.87;;;4.60;;
6392;SDS011;3229;42.674;23.282;2022-12-05T00:17:26;5.70;;;4.77;;
6392;SDS011;3229;42.674;23.282;2022-12-05T00:19:54;6.23;;;4.40;;
6392;SDS011;3229;42.674;23.282;2022-12-05T00:22:21;6.00;;;4.70;;
6392;SDS011;3229;42.674;23.282;2022-12-05T00:24:48;5.60;;;4.63;;
6392;SDS011;3229;42.674;23.282;2022-12-05T00:27:15;5.17;;;4.27;;
6392;SDS011;3229;42.674;23.282;2022-12-05T00:29:41;4.87;;;4.37;;
6392;SDS011;3229;42.674;23.282;2022-12-05T00:32:08;5.47;;;4.97;;
6392;SDS011;3229;42.674;23.282;2022-12-05T00:34:35;4.70;;;3.83;;
6392;SDS011;3229;42.674;23.282;2022-12-05T00:37:03;5.07;;;4.30;;
6392;SDS011;3229;42.674;23.282;2022-12-05T00:39:30;7.27;;;5.00;;
6392;SDS011;3229;42.674;23.282;2022-12-05T00:41:56;5.57;;;4.77;;
6392;SDS011;3229;42.674;23.282;2022-12-05T00:44:23;6.07;;;4.30;;
6392;SDS011;3229;42.674;23.282;2022-12-05T00:46:50;5.90;;;4.53;;
6392;SDS011;3229;42.674;23.282;2022-12-05T00:49:17;6.03;;;4.60;;
6392;SDS011;3229;42.674;23.282;2022-12-05T00:51:44;5.70;;;4.27;;
6392;SDS011;3229;42.674;23.282;2022-12-05T00:54:13;6.17;;;4.83;;
6392;SDS011;3229;42.674;23.282;2022-12-05T00:56:41;6.27;;;4.40;;
6392;SDS011;3229;42.674;23.282;2022-12-05T00:59:11;6.43;;;4.83;;
6392;SDS011;3229;42.674;23.282;2022-12-05T01:01:42;6.63;;;4.60;;
6392;SDS011;3229;42.674;23.282;2022-12-05T01:04:11;5.40;;;4.87;;
6392;SDS011;3229;42.674;23.282;2022-12-05T01:06:40;6.40;;;5.13;;
6392;SDS011;3229;42.674;23.282;2022-12-05T01:09:08;5.53;;;4.67;;
6392;SDS011;3229;42.674;23.282;2022-12-05T01:11:39;5.90;;;4.70;;
6392;SDS011;3229;42.674;23.282;2022-12-05T01:14:06;6.40;;;4.70;;
6392;SDS011;3229;42.674;23.282;2022-12-05T01:16:33;5.50;;;4.47;;
6392;SDS011;3229;42.674;23.282;2022-12-05T01:19:02;5.60;;;4.90;;
6392;SDS011;3229;42.674;23.282;2022-12-05T01:21:30;6.93;;;4.70;;
6392;SDS011;3229;42.674;23.282;2022-12-05T01:23:57;5.67;;;4.77;;
6392;SDS011;3229;42.674;23.282;2022-12-05T01:26:24;5.20;;;4.70;;
6392;SDS011;3229;42.674;23.282;2022-12-05T01:28:52;6.13;;;5.13;;
6392;SDS011;3229;42.674;23.282;2022-12-05T01:31:21;7.03;;;4.80;;
6392;SDS011;3229;42.674;23.282;2022-12-05T01:33:50;5.63;;;4.80;;
6392;SDS011;3229;42.674;23.282;2022-12-05T01:36:18;6.90;;;5.40;;
6392;SDS011;3229;42.674;23.282;2022-12-05T01:38:45;6.33;;;4.83;;
6392;SDS011;3229;42.674;23.282;2022-12-05T01:41:12;6.57;;;5.53;;
6392;SDS011;3229;42.674;23.282;2022-12-05T01:43:56;5.83;;;5.20;;
6392;SDS011;3229;42.674;23.282;2022-12-05T01:46:26;7.70;;;5.23;;
6392;SDS011;3229;42.674;23.282;2022-12-05T01:48:55;6.47;;;5.30;;
6392;SDS011;3229;42.674;23.282;2022-12-05T01:51:32;6.67;;;5.33;;
6392;SDS011;3229;42.674;23.282;2022-12-05T01:54:01;7.07;;;5.20;;
6392;SDS011;3229;42.674;23.282;2022-12-05T01:56:29;5.10;;;4.60;;
6392;SDS011;3229;42.674;23.282;2022-12-05T01:58:59;7.23;;;5.37;;
6392;SDS011;3229;42.674;23.282;2022-12-05T02:01:29;5.30;;;4.80;;
6392;SDS011;3229;42.674;23.282;2022-12-05T02:03:56;10.50;;;5.53;;
6392;SDS011;3229;42.674;23.282;2022-12-05T02:06:24;6.60;;;5.17;;
6392;SDS011;3229;42.674;23.282;2022-12-05T02:08:52;7.00;;;4.90;;
6392;SDS011;3229;42.674;23.282;2022-12-05T02:11:19;6.10;;;5.20;;
6392;SDS011;3229;42.674;23.282;2022-12-05T02:16:51;8.27;;;5.27;;
6392;SDS011;3229;42.674;23.282;2022-12-05T02:19:36;6.23;;;4.83;;
6392;SDS011;3229;42.674;23.282;2022-12-05T02:22:21;7.97;;;5.87;;
6392;SDS011;3229;42.674;23.282;2022-12-05T02:25:07;6.60;;;5.23;;
6392;SDS011;3229;42.674;23.282;2022-12-05T02:27:48;5.93;;;5.30;;
6392;SDS011;3229;42.674;23.282;2022-12-05T02:30:37;9.57;;;5.57;;
6392;SDS011;3229;42.674;23.282;2022-12-05T02:33:10;7.43;;;5.80;;
6392;SDS011;3229;42.674;23.282;2022-12-05T02:35:47;6.33;;;5.23;;
6392;SDS011;3229;42.674;23.282;2022-12-05T02:38:22;6.60;;;5.17;;
6392;SDS011;3229;42.674;23.282;2022-12-05T02:40:55;6.10;;;5.30;;
6392;SDS011;3229;42.674;23.282;2022-12-05T02:43:30;7.37;;;5.70;;
6392;SDS011;3229;42.674;23.282;2022-12-05T02:46:02;6.33;;;4.90;;
6392;SDS011;3229;42.674;23.282;2022-12-05T02:48:34;7.43;;;5.37;;
6392;SDS011;3229;42.674;23.282;2022-12-05T02:51:02;6.93;;;5.20;;
6392;SDS011;3229;42.674;23.282;2022-12-05T02:53:32;7.67;;;5.20;;
6392;SDS011;3229;42.674;23.282;2022-12-05T02:56:02;6.57;;;5.00;;
6392;SDS011;3229;42.674;23.282;2022-12-05T02:58:31;8.00;;;5.73;;
6392;SDS011;3229;42.674;23.282;2022-12-05T03:01:03;6.73;;;5.60;;
6392;SDS011;3229;42.674;23.282;2022-12-05T03:03:30;6.07;;;4.70;;
6392;SDS011;3229;42.674;23.282;2022-12-05T03:05:59;6.33;;;5.07;;
6392;SDS011;3229;42.674;23.282;2022-12-05T03:08:32;6.93;;;5.30;;
6392;SDS011;3229;42.674;23.282;2022-12-05T03:11:04;5.93;;;5.27;;
6392;SDS011;3229;42.674;23.282;2022-12-05T03:13:33;6.80;;;5.40;;
6392;SDS011;3229;42.674;23.282;2022-12-05T03:16:07;6.20;;;5.50;;
6392;SDS011;3229;42.674;23.282;2022-12-05T03:18:38;6.93;;;5.70;;
6392;SDS011;3229;42.674;23.282;2022-12-05T03:21:12;7.17;;;5.20;;
6392;SDS011;3229;42.674;23.282;2022-12-05T03:23:46;7.13;;;5.73;;
6392;SDS011;3229;42.674;23.282;2022-12-05T03:26:17;7.23;;;5.40;;
6392;SDS011;3229;42.674;23.282;2022-12-05T03:28:59;7.70;;;5.47;;
6392;SDS011;3229;42.674;23.282;2022-12-05T03:31:41;5.67;;;4.63;;
6392;SDS011;3229;42.674;23.282;2022-12-05T03:34:13;6.63;;;5.27;;
6392;SDS011;3229;42.674;23.282;2022-12-05T03:36:43;5.50;;;5.00;;
6392;SDS011;3229;42.674;23.282;2022-12-05T03:39:15;5.77;;;4.90;;
6392;SDS011;3229;42.674;23.282;2022-12-05T03:41:48;6.50;;;5.13;;
6392;SDS011;3229;42.674;23.282;2022-12-05T03:44:24;6.77;;;5.57;;
6392;SDS011;3229;42.674;23.282;2022-12-05T03:47:02;6.37;;;5.60;;
6392;SDS011;3229;42.674;23.282;2022-12-05T03:49:33;6.70;;;5.43;;
6392;SDS011;3229;42.674;23.282;2022-12-05T03:52:04;5.73;;;4.87;;
6392;SDS011;3229;42.674;23.282;2022-12-05T03:54:36;6.43;;;4.97;;
6392;SDS011;3229;42.674;23.282;2022-12-05T03:57:09;6.47;;;5.33;;
6392;SDS011;3229;42.674;23.282;2022-12-05T03:59:42;6.70;;;4.83;;
6392;SDS011;3229;42.674;23.282;2022-12-05T04:02:15;6.50;;;5.63;;
6392;SDS011;3229;42.674;23.282;2022-12-05T04:04:47;8.97;;;5.97;;
6392;SDS011;3229;42.674;23.282;2022-12-05T04:07:19;7.27;;;5.50;;
6392;SDS011;3229;42.674;23.282;2022-12-05T04:09:48;5.80;;;5.07;;
6392;SDS011;3229;42.674;23.282;2022-12-05T04:12:18;7.37;;;5.93;;
6392;SDS011;3229;42.674;23.282;2022-12-05T04:14:49;6.33;;;5.57;;
6392;SDS011;3229;42.674;23.282;2022-12-05T04:17:21;7.03;;;5.40;;
6392;SDS011;3229;42.674;23.282;2022-12-05T04:19:55;6.27;;;5.27;;
6392;SDS011;3229;42.674;23.282;2022-12-05T04:22:43;8.30;;;5.97;;
6392;SDS011;3229;42.674;23.282;2022-12-05T04:25:11;7.20;;;5.20;;
6392;SDS011;3229;42.674;23.282;2022-12-05T04:27:58;6.67;;;5.10;;
6392;SDS011;3229;42.674;23.282;2022-12-05T04:30:34;6.63;;;5.47;;
6392;SDS011;3229;42.674;23.282;2022-12-05T04:33:07;6.13;;;5.17;;
6392;SDS011;3229;42.674;23.282;2022-12-05T04:35:39;8.33;;;5.43;;
6392;SDS011;3229;42.674;23.282;2022-12-05T04:38:10;7.20;;;5.10;;
6392;SDS011;3229;42.674;23.282;2022-12-05T04:40:43;7.37;;;6.37;;
6392;SDS011;3229;42.674;23.282;2022-12-05T04:43:15;7.93;;;6.13;;
6392;SDS011;3229;42.674;23.282;2022-12-05T04:45:44;6.13;;;5.40;;
6392;SDS011;3229;42.674;23.282;2022-12-05T04:48:15;8.37;;;5.57;;
6392;SDS011;3229;42.674;23.282;2022-12-05T04:50:44;7.67;;;5.50;;
6392;SDS011;3229;42.674;23.282;2022-12-05T04:53:13;8.23;;;5.33;;
6392;SDS011;3229;42.674;23.282;2022-12-05T04:55:43;7.87;;;6.00;;
6392;SDS011;3229;42.674;23.282;2022-12-05T04:58:16;6.87;;;5.90;;
6392;SDS011;3229;42.674;23.282;2022-12-05T05:00:45;7.47;;;5.43;;
6392;SDS011;3229;42.674;23.282;2022-12-05T05:03:22;7.80;;;5.53;;
6392;SDS011;3229;42.674;23.282;2022-12-05T05:05:53;5.80;;;5.20;;
6392;SDS011;3229;42.674;23.282;2022-12-05T05:08:22;5.97;;;5.20;;
6392;SDS011;3229;42.674;23.282;2022-12-05T05:10:55;7.57;;;5.30;;
6392;SDS011;3229;42.674;23.282;2022-12-05T05:13:29;7.63;;;5.50;;
6392;SDS011;3229;42.674;23.282;2022-12-05T05:15:56;8.37;;;5.53;;
6392;SDS011;3229;42.674;23.282;2022-12-05T05:18:24;5.80;;;5.00;;
6392;SDS011;3229;42.674;23.282;2022-12-05T05:20:51;6.87;;;5.47;;
6392;SDS011;3229;42.674;23.282;2022-12-05T05:23:18;7.63;;;5.83;;
6392;SDS011;3229;42.674;23.282;2022-12-05T05:25:45;7.53;;;4.93;;
6392;SDS011;3229;42.674;23.282;2022-12-05T05:28:16;6.93;;;5.73;;
6392;SDS011;3229;42.674;23.282;2022-12-05T05:30:43;8.30;;;6.00;;
6392;SDS011;3229;42.674;23.282;2022-12-05T05:33:10;7.27;;;5.70;;
6392;SDS011;3229;42.674;23.282;2022-12-05T05:35:38;7.27;;;5.70;;
6392;SDS011;3229;42.674;23.282;2022-12-05T05:38:05;7.27;;;5.10;;
6392;SDS011;3229;42.674;23.282;2022-12-05T05:40:33;7.23;;;5.83;;
6392;SDS011;3229;42.674;23.282;2022-12-05T05:43:00;6.90;;;5.70;;
6392;SDS011;3229;42.674;23.282;2022-12-05T05:45:27;8.20;;;5.63;;
6392;SDS011;3229;42.674;23.282;2022-12-05T05:47:53;8.07;;;5.70;;
6392;SDS011;3229;42.674;23.282;2022-12-05T05:50:20;7.80;;;5.30;;
6392;SDS011;3229;42.674;23.282;2022-12-05T05:52:50;7.70;;;6.43;;
6392;SDS011;3229;42.674;23.282;2022-12-05T05:55:17;6.80;;;5.87;;
6392;SDS011;3229;42.674;23.282;2022-12-05T05:57:44;9.27;;;6.27;;
6392;SDS011;3229;42.674;23.282;2022-12-05T06:00:11;7.63;;;5.80;;
6392;SDS011;3229;42.674;23.282;2022-12-05T06:02:39;7.10;;;5.63;;
6392;SDS011;3229;42.674;23.282;2022-12-05T06:05:06;8.47;;;5.47;;
6392;SDS011;3229;42.674;23.282;2022-12-05T06:07:33;9.30;;;6.10;;
6392;SDS011;3229;42.674;23.282;2022-12-05T06:10:02;7.87;;;5.50;;
6392;SDS011;3229;42.674;23.282;2022-12-05T06:12:29;7.57;;;6.03;;
6392;SDS011;3229;42.674;23.282;2022-12-05T06:14:56;7.47;;;5.70;;
6392;SDS011;3229;42.674;23.282;2022-12-05T06:17:24;6.93;;;5.77;;
6392;SDS011;3229;42.674;23.282;2022-12-05T06:19:50;6.77;;;5.60;;
6392;SDS011;3229;42.674;23.282;2022-12-05T06:22:17;7.50;;;5.47;;
6392;SDS011;3229;42.674;23.282;2022-12-05T06:24:44;6.33;;;5.07;;
6392;SDS011;3229;42.674;23.282;2022-12-05T06:27:12;10.70;;;6.13;;
6392;SDS011;3229;42.674;23.282;2022-12-05T06:29:39;12.60;;;3.83;;
6392;SDS011;3229;42.674;23.282;2022-12-05T06:32:06;4.90;;;3.57;;
6392;SDS011;3229;42.674;23.282;2022-12-05T06:34:33;4.87;;;3.87;;
6392;SDS011;3229;42.674;23.282;2022-12-05T06:37:00;6.70;;;3.80;;
6392;SDS011;3229;42.674;23.282;2022-12-05T06:39:27;4.60;;;3.63;;
6392;SDS011;3229;42.674;23.282;2022-12-05T06:41:54;5.50;;;4.10;;
6392;SDS011;3229;42.674;23.282;2022-12-05T06:44:22;14.20;;;4.30;;
6392;SDS011;3229;42.674;23.282;2022-12-05T06:46:51;4.70;;;3.93;;
6392;SDS011;3229;42.674;23.282;2022-12-05T06:49:18;4.57;;;3.70;;
6392;SDS011;3229;42.674;23.282;2022-12-05T06:51:46;5.30;;;4.30;;
6392;SDS011;3229;42.674;23.282;2022-12-05T06:54:13;4.27;;;3.83;;
6392;SDS011;3229;42.674;23.282;2022-12-05T06:56:40;4.97;;;3.90;;
6392;SDS011;3229;42.674;23.282;2022-12-05T06:59:06;7.33;;;4.63;;
6392;SDS011;3229;42.674;23.282;2022-12-05T07:01:35;5.80;;;4.50;;
6392;SDS011;3229;42.674;23.282;2022-12-05T07:04:05;6.50;;;3.83;;
6392;SDS011;3229;42.674;23.282;2022-12-05T07:06:33;4.53;;;3.70;;
6392;SDS011;3229;42.674;23.282;2022-12-05T07:09:00;7.83;;;3.53;;
6392;SDS011;3229;42.674;23.282;2022-12-05T07:11:28;3.40;;;2.70;;
6392;SDS011;3229;42.674;23.282;2022-12-05T07:13:55;6.47;;;3.70;;
6392;SDS011;3229;42.674;23.282;2022-12-05T07:16:22;4.87;;;3.80;;
6392;SDS011;3229;42.674;23.282;2022-12-05T07:18:51;5.67;;;3.73;;
6392;SDS011;3229;42.674;23.282;2022-12-05T07:21:18;6.60;;;4.03;;
6392;SDS011;3229;42.674;23.282;2022-12-05T07:23:46;4.93;;;3.93;;
6392;SDS011;3229;42.674;23.282;2022-12-05T07:26:15;7.87;;;3.97;;
6392;SDS011;3229;42.674;23.282;2022-12-05T07:28:44;6.23;;;4.10;;
6392;SDS011;3229;42.674;23.282;2022-12-05T07:31:12;7.43;;;4.87;;
6392;SDS011;3229;42.674;23.282;2022-12-05T07:33:40;6.07;;;3.70;;
6392;SDS011;3229;42.674;23.282;2022-12-05T07:36:09;5.60;;;4.53;;
6392;SDS011;3229;42.674;23.282;2022-12-05T07:38:38;5.80;;;4.50;;
6392;SDS011;3229;42.674;23.282;2022-12-05T07:41:05;7.30;;;4.03;;
6392;SDS011;3229;42.674;23.282;2022-12-05T07:43:33;7.00;;;4.43;;
6392;SDS011;3229;42.674;23.282;2022-12-05T07:46:00;5.40;;;4.37;;
6392;SDS011;3229;42.674;23.282;2022-12-05T07:48:28;5.00;;;4.00;;
6392;SDS011;3229;42.674;23.282;2022-12-05T07:50:57;5.47;;;4.10;;
6392;SDS011;3229;42.674;23.282;2022-12-05T07:53:26;8.40;;;4.97;;
6392;SDS011;3229;42.674;23.282;2022-12-05T07:55:53;7.17;;;4.87;;
6392;SDS011;3229;42.674;23.282;2022-12-05T07:58:20;10.87;;;4.53;;
6392;SDS011;3229;42.674;23.282;2022-12-05T08:00:47;7.93;;;4.57;;
6392;SDS011;3229;42.674;23.282;2022-12-05T08:03:13;11.43;;;5.17;;
6392;SDS011;3229;42.674;23.282;2022-12-05T08:05:40;7.23;;;4.80;;
6392;SDS011;3229;42.674;23.282;2022-12-05T08:08:07;10.90;;;5.83;;
6392;SDS011;3229;42.674;23.282;2022-12-05T08:10:35;5.63;;;4.77;;
6392;SDS011;3229;42.674;23.282;2022-12-05T08:13:02;7.17;;;5.30;;
6392;SDS011;3229;42.674;23.282;2022-12-05T08:15:29;7.17;;;4.53;;
6392;SDS011;3229;42.674;23.282;2022-12-05T08:17:56;5.97;;;4.87;;
6392;SDS011;3229;42.674;23.282;2022-12-05T08:20:22;5.90;;;5.30;;
6392;SDS011;3229;42.674;23.282;2022-12-05T08:22:50;6.33;;;4.93;;
6392;SDS011;3229;42.674;23.282;2022-12-05T08:25:17;8.23;;;5.80;;
6392;SDS011;3229;42.674;23.282;2022-12-05T08:27:46;7.13;;;5.23;;
6392;SDS011;3229;42.674;23.282;2022-12-05T08:30:13;5.53;;;4.60;;
6392;SDS011;3229;42.674;23.282;2022-12-05T08:32:40;6.03;;;5.37;;
6392;SDS011;3229;42.674;23.282;2022-12-05T08:35:07;7.90;;;5.80;;
6392;SDS011;3229;42.674;23.282;2022-12-05T08:37:34;8.67;;;5.13;;
6392;SDS011;3229;42.674;23.282;2022-12-05T08:40:02;8.10;;;5.40;;
6392;SDS011;3229;42.674;23.282;2022-12-05T08:42:29;6.97;;;5.27;;
6392;SDS011;3229;42.674;23.282;2022-12-05T08:44:57;7.77;;;5.27;;
6392;SDS011;3229;42.674;23.282;2022-12-05T08:47:24;8.17;;;5.73;;
6392;SDS011;3229;42.674;23.282;2022-12-05T08:49:51;6.40;;;5.63;;
6392;SDS011;3229;42.674;23.282;2022-12-05T08:52:18;5.90;;;5.30;;
6392;SDS011;3229;42.674;23.282;2022-12-05T08:54:46;8.03;;;5.90;;
6392;SDS011;3229;42.674;23.282;2022-12-05T08:57:13;7.57;;;5.47;;
6392;SDS011;3229;42.674;23.282;2022-12-05T08:59:40;7.67;;;6.73;;
6392;SDS011;3229;42.674;23.282;2022-12-05T09:02:08;7.57;;;5.30;;
6392;SDS011;3229;42.674;23.282;2022-12-05T09:04:36;9.40;;;5.03;;
6392;SDS011;3229;42.674;23.282;2022-12-05T09:07:02;7.03;;;5.40;;
6392;SDS011;3229;42.674;23.282;2022-12-05T09:09:30;6.77;;;5.40;;
6392;SDS011;3229;42.674;23.282;2022-12-05T09:11:57;7.67;;;5.33;;
6392;SDS011;3229;42.674;23.282;2022-12-05T09:14:25;6.20;;;4.77;;
6392;SDS011;3229;42.674;23.282;2022-12-05T09:16:56;7.37;;;5.50;;
6392;SDS011;3229;42.674;23.282;2022-12-05T09:19:25;8.07;;;5.33;;
6392;SDS011;3229;42.674;23.282;2022-12-05T09:21:53;7.53;;;5.87;;
6392;SDS011;3229;42.674;23.282;2022-12-05T09:24:21;6.30;;;5.13;;
6392;SDS011;3229;42.674;23.282;2022-12-05T09:26:48;5.93;;;5.13;;
6392;SDS011;3229;42.674;23.282;2022-12-05T09:29:15;5.70;;;5.10;;
6392;SDS011;3229;42.674;23.282;2022-12-05T09:31:42;6.80;;;5.00;;
6392;SDS011;3229;42.674;23.282;2022-12-05T09:34:10;8.50;;;4.83;;
6392;SDS011;3229;42.674;23.282;2022-12-05T09:36:40;6.87;;;5.20;;
6392;SDS011;3229;42.674;23.282;2022-12-05T09:39:08;6.17;;;5.07;;
6392;SDS011;3229;42.674;23.282;2022-12-05T09:41:41;8.17;;;5.03;;
6392;SDS011;3229;42.674;23.282;2022-12-05T09:44:37;4.87;;;4.40;;
6392;SDS011;3229;42.674;23.282;2022-12-05T09:47:13;6.27;;;4.80;;
6392;SDS011;3229;42.674;23.282;2022-12-05T09:49:53;4.53;;;4.10;;
6392;SDS011;3229;42.674;23.282;2022-12-05T09:52:26;6.33;;;4.80;;
6392;SDS011;3229;42.674;23.282;2022-12-05T09:54:54;7.13;;;4.57;;
6392;SDS011;3229;42.674;23.282;2022-12-05T09:57:23;5.27;;;4.70;;
6392;SDS011;3229;42.674;23.282;2022-12-05T09:59:58;5.33;;;4.70;;
6392;SDS011;3229;42.674;23.282;2022-12-05T10:02:29;5.40;;;4.83;;
6392;SDS011;3229;42.674;23.282;2022-12-05T10:05:07;5.33;;;4.37;;
6392;SDS011;3229;42.674;23.282;2022-12-05T10:07:40;5.03;;;4.37;;
6392;SDS011;3229;42.674;23.282;2022-12-05T10:10:18;4.77;;;4.37;;
6392;SDS011;3229;42.674;23.282;2022-12-05T10:12:53;5.27;;;4.73;;
6392;SDS011;3229;42.674;23.282;2022-12-05T10:15:34;6.33;;;4.47;;
6392;SDS011;3229;42.674;23.282;2022-12-05T10:18:08;7.53;;;4.97;;
6392;SDS011;3229;42.674;23.282;2022-12-05T10:20:42;5.83;;;4.67;;
6392;SDS011;3229;42.674;23.282;2022-12-05T10:23:15;5.23;;;4.47;;
6392;SDS011;3229;42.674;23.282;2022-12-05T10:25:47;6.23;;;4.93;;
6392;SDS011;3229;42.674;23.282;2022-12-05T10:28:17;5.00;;;4.20;;
6392;SDS011;3229;42.674;23.282;2022-12-05T10:30:52;6.43;;;4.50;;
6392;SDS011;3229;42.674;23.282;2022-12-05T10:33:22;5.60;;;4.30;;
6392;SDS011;3229;42.674;23.282;2022-12-05T10:35:49;5.27;;;4.77;;
6392;SDS011;3229;42.674;23.282;2022-12-05T10:38:21;5.83;;;5.23;;
6392;SDS011;3229;42.674;23.282;2022-12-05T10:40:52;5.60;;;5.10;;
6392;SDS011;3229;42.674;23.282;2022-12-05T10:43:22;4.63;;;4.23;;
6392;SDS011;3229;42.674;23.282;2022-12-05T10:45:51;6.20;;;5.43;;
6392;SDS011;3229;42.674;23.282;2022-12-05T10:48:18;6.57;;;4.70;;
6392;SDS011;3229;42.674;23.282;2022-12-05T10:50:47;5.53;;;4.57;;
6392;SDS011;3229;42.674;23.282;2022-12-05T10:53:16;6.17;;;5.00;;
6392;SDS011;3229;42.674;23.282;2022-12-05T10:55:46;5.83;;;5.20;;
6392;SDS011;3229;42.674;23.282;2022-12-05T10:58:15;5.07;;;4.57;;
6392;SDS011;3229;42.674;23.282;2022-12-05T11:00:47;5.53;;;4.90;;
6392;SDS011;3229;42.674;23.282;2022-12-05T11:03:26;5.70;;;5.00;;
6392;SDS011;3229;42.674;23.282;2022-12-05T11:05:55;7.17;;;5.20;;
6392;SDS011;3229;42.674;23.282;2022-12-05T11:08:24;6.50;;;5.50;;
6392;SDS011;3229;42.674;23.282;2022-12-05T11:11:04;5.67;;;5.07;;
6392;SDS011;3229;42.674;23.282;2022-12-05T11:13:32;6.03;;;4.97;;
6392;SDS011;3229;42.674;23.282;2022-12-05T11:15:59;7.03;;;5.70;;
6392;SDS011;3229;42.674;23.282;2022-12-05T11:18:28;6.60;;;5.47;;
6392;SDS011;3229;42.674;23.282;2022-12-05T11:20:58;5.70;;;5.10;;
6392;SDS011;3229;42.674;23.282;2022-12-05T11:23:35;5.30;;;4.80;;
6392;SDS011;3229;42.674;23.282;2022-12-05T11:26:17;5.47;;;4.87;;
6392;SDS011;3229;42.674;23.282;2022-12-05T11:28:58;7.60;;;5.40;;
6392;SDS011;3229;42.674;23.282;2022-12-05T11:31:26;9.37;;;4.80;;
6392;SDS011;3229;42.674;23.282;2022-12-05T11:34:01;6.93;;;5.17;;
6392;SDS011;3229;42.674;23.282;2022-12-05T11:36:41;5.73;;;5.13;;
6392;SDS011;3229;42.674;23.282;2022-12-05T11:39:11;6.27;;;5.10;;
6392;SDS011;3229;42.674;23.282;2022-12-05T11:45:04;9.47;;;5.33;;
6392;SDS011;3229;42.674;23.282;2022-12-05T11:47:46;7.13;;;5.40;;
6392;SDS011;3229;42.674;23.282;2022-12-05T11:50:32;6.83;;;5.03;;
6392;SDS011;3229;42.674;23.282;2022-12-05T11:53:10;5.93;;;4.90;;
6392;SDS011;3229;42.674;23.282;2022-12-05T11:55:56;7.53;;;5.77;;
6392;SDS011;3229;42.674;23.282;2022-12-05T11:58:39;5.50;;;5.00;;
6392;SDS011;3229;42.674;23.282;2022-12-05T12:01:17;8.00;;;5.47;;
6392;SDS011;3229;42.674;23.282;2022-12-05T12:04:02;6.10;;;5.10;;
6392;SDS011;3229;42.674;23.282;2022-12-05T12:06:47;10.13;;;5.80;;
6392;SDS011;3229;42.674;23.282;2022-12-05T12:09:27;9.47;;;5.63;;
6392;SDS011;3229;42.674;23.282;2022-12-05T12:12:05;7.23;;;5.67;;
6392;SDS011;3229;42.674;23.282;2022-12-05T12:14:40;7.87;;;5.10;;
6392;SDS011;3229;42.674;23.282;2022-12-05T12:17:18;6.03;;;5.43;;
6392;SDS011;3229;42.674;23.282;2022-12-05T12:19:55;5.73;;;5.23;;
6392;SDS011;3229;42.674;23.282;2022-12-05T12:22:57;6.03;;;5.40;;
6392;SDS011;3229;42.674;23.282;2022-12-05T12:25:38;9.60;;;6.00;;
6392;SDS011;3229;42.674;23.282;2022-12-05T12:28:17;6.00;;;5.13;;
6392;SDS011;3229;42.674;23.282;2022-12-05T12:31:02;6.80;;;5.60;;
6392;SDS011;3229;42.674;23.282;2022-12-05T12:33:42;6.13;;;5.53;;
6392;SDS011;3229;42.674;23.282;2022-12-05T12:36:15;6.90;;;5.77;;
6392;SDS011;3229;42.674;23.282;2022-12-05T12:38:51;6.10;;;5.50;;
6392;SDS011;3229;42.674;23.282;2022-12-05T12:41:32;6.90;;;5.80;;
6392;SDS011;3229;42.674;23.282;2022-12-05T12:44:17;6.17;;;5.27;;
6392;SDS011;3229;42.674;23.282;2022-12-05T12:47:05;6.20;;;5.57;;
6392;SDS011;3229;42.674;23.282;2022-12-05T12:49:45;7.50;;;6.00;;
6392;SDS011;3229;42.674;23.282;2022-12-05T12:52:23;6.43;;;5.70;;
6392;SDS011;3229;42.674;23.282;2022-12-05T12:55:02;5.53;;;4.90;;
6392;SDS011;3229;42.674;23.282;2022-12-05T12:57:47;6.80;;;5.50;;
6392;SDS011;3229;42.674;23.282;2022-12-05T13:00:27;7.00;;;5.93;;
6392;SDS011;3229;42.674;23.282;2022-12-05T13:03:01;7.63;;;5.37;;
6392;SDS011;3229;42.674;23.282;2022-12-05T13:05:33;8.40;;;5.27;;
6392;SDS011;3229;42.674;23.282;2022-12-05T13:08:05;8.73;;;6.23;;
6392;SDS011;3229;42.674;23.282;2022-12-05T13:10:40;9.87;;;6.87;;
6392;SDS011;3229;42.674;23.282;2022-12-05T13:13:09;7.57;;;5.73;;
6392;SDS011;3229;42.674;23.282;2022-12-05T13:15:39;6.27;;;5.50;;
6392;SDS011;3229;42.674;23.282;2022-12-05T13:18:13;7.73;;;6.00;;
6392;SDS011;3229;42.674;23.282;2022-12-05T13:20:43;7.90;;;6.03;;
6392;SDS011;3229;42.674;23.282;2022-12-05T13:23:13;7.87;;;6.37;;
6392;SDS011;3229;42.674;23.282;2022-12-05T13:25:43;7.63;;;5.90;;
6392;SDS011;3229;42.674;23.282;2022-12-05T13:28:15;9.80;;;6.53;;
6392;SDS011;3229;42.674;23.282;2022-12-05T13:30:52;7.90;;;6.30;;
6392;SDS011;3229;42.674;23.282;2022-12-05T13:33:28;8.23;;;6.20;;
6392;SDS011;3229;42.674;23.282;2022-12-05T13:36:02;7.70;;;5.93;;
6392;SDS011;3229;42.674;23.282;2022-12-05T13:38:49;6.90;;;6.13;;
6392;SDS011;3229;42.674;23.282;2022-12-05T13:41:43;9.33;;;6.57;;
6392;SDS011;3229;42.674;23.282;2022-12-05T13:44:30;7.27;;;6.20;;
6392;SDS011;3229;42.674;23.282;2022-12-05T13:47:01;8.53;;;6.47;;
6392;SDS011;3229;42.674;23.282;2022-12-05T13:49:33;8.23;;;6.73;;
6392;SDS011;3229;42.674;23.282;2022-12-05T13:52:10;9.80;;;7.07;;
6392;SDS011;3229;42.674;23.282;2022-12-05T13:54:43;8.10;;;6.63;;
6392;SDS011;3229;42.674;23.282;2022-12-05T14:00:24;8.10;;;7.13;;
6392;SDS011;3229;42.674;23.282;2022-12-05T14:03:08;10.07;;;7.00;;
6392;SDS011;3229;42.674;23.282;2022-12-05T14:05:48;11.07;;;6.67;;
6392;SDS011;3229;42.674;23.282;2022-12-05T14:11:29;8.83;;;7.43;;
6392;SDS011;3229;42.674;23.282;2022-12-05T14:13:56;11.43;;;7.70;;
6392;SDS011;3229;42.674;23.282;2022-12-05T14:25:37;12.63;;;7.30;;
6392;SDS011;3229;42.674;23.282;2022-12-05T14:28:19;9.23;;;7.43;;
6392;SDS011;3229;42.674;23.282;2022-12-05T14:31:04;11.03;;;7.90;;
6392;SDS011;3229;42.674;23.282;2022-12-05T14:33:46;10.70;;;7.83;;
6392;SDS011;3229;42.674;23.282;2022-12-05T14:36:30;13.00;;;8.97;;
6392;SDS011;3229;42.674;23.282;2022-12-05T14:38:57;9.57;;;7.43;;
6392;SDS011;3229;42.674;23.282;2022-12-05T14:41:25;12.30;;;8.10;;
6392;SDS011;3229;42.674;23.282;2022-12-05T14:43:58;11.07;;;7.63;;
6392;SDS011;3229;42.674;23.282;2022-12-05T14:46:28;10.50;;;7.63;;
6392;SDS011;3229;42.674;23.282;2022-12-05T14:48:57;11.37;;;7.80;;
6392;SDS011;3229;42.674;23.282;2022-12-05T14:52:00;11.57;;;8.57;;
6392;SDS011;3229;42.674;23.282;2022-12-05T14:54:35;12.90;;;8.97;;
6392;SDS011;3229;42.674;23.282;2022-12-05T14:57:07;11.77;;;7.80;;
6392;SDS011;3229;42.674;23.282;2022-12-05T14:59:44;10.77;;;9.03;;
6392;SDS011;3229;42.674;23.282;2022-12-05T15:02:16;12.87;;;8.97;;
6392;SDS011;3229;42.674;23.282;2022-12-05T15:04:49;10.37;;;8.00;;
6392;SDS011;3229;42.674;23.282;2022-12-05T15:07:21;13.17;;;8.97;;
6392;SDS011;3229;42.674;23.282;2022-12-05T15:09:56;11.27;;;8.70;;
6392;SDS011;3229;42.674;23.282;2022-12-05T15:12:26;12.77;;;9.00;;
6392;SDS011;3229;42.674;23.282;2022-12-05T15:15:04;11.37;;;8.70;;
6392;SDS011;3229;42.674;23.282;2022-12-05T15:17:38;12.53;;;8.53;;
6392;SDS011;3229;42.674;23.282;2022-12-05T15:20:13;11.23;;;8.00;;
6392;SDS011;3229;42.674;23.282;2022-12-05T15:22:45;12.00;;;8.70;;
6392;SDS011;3229;42.674;23.282;2022-12-05T15:25:19;10.60;;;8.50;;
6392;SDS011;3229;42.674;23.282;2022-12-05T15:27:53;12.93;;;8.80;;
6392;SDS011;3229;42.674;23.282;2022-12-05T15:30:23;10.77;;;8.13;;
6392;SDS011;3229;42.674;23.282;2022-12-05T15:32:51;11.80;;;9.47;;
6392;SDS011;3229;42.674;23.282;2022-12-05T15:35:18;12.40;;;9.53;;
6392;SDS011;3229;42.674;23.282;2022-12-05T15:37:48;11.17;;;8.97;;
6392;SDS011;3229;42.674;23.282;2022-12-05T15:40:18;12.60;;;9.07;;
6392;SDS011;3229;42.674;23.282;2022-12-05T15:42:47;11.13;;;8.77;;
6392;SDS011;3229;42.674;23.282;2022-12-05T15:45:17;13.73;;;9.00;;
6392;SDS011;3229;42.674;23.282;2022-12-05T15:47:49;12.77;;;9.43;;